sensor_id;sensor_type;location;lat;lon;timestamp;temperature;humidity
43647;DHT22;56152;49.996;18.980;2024-03-08T00:00:29;1.30;96.10
43647;DHT22;56152;49.996;18.980;2024-03-08T00:05:35;1.30;96.20
43647;DHT22;56152;49.996;18.980;2024-03-08T00:10:41;1.40;96.20
43647;DHT22;56152;49.996;18.980;2024-03-08T00:15:43;1.30;96.20
43647;DHT22;56152;49.996;18.980;2024-03-08T00:20:47;1.30;96.20
43647;DHT22;56152;49.996;18.980;2024-03-08T00:25:48;1.30;96.20
43647;DHT22;56152;49.996;18.980;2024-03-08T00:30:54;1.30;96.20
43647;DHT22;56152;49.996;18.980;2024-03-08T00:35:58;1.30;96.20
43647;DHT22;56152;49.996;18.980;2024-03-08T00:41:00;1.20;96.20
43647;DHT22;56152;49.996;18.980;2024-03-08T00:46:02;1.20;96.20
43647;DHT22;56152;49.996;18.980;2024-03-08T00:51:06;1.20;96.30
43647;DHT22;56152;49.996;18.980;2024-03-08T00:56:08;1.10;96.30
43647;DHT22;56152;49.996;18.980;2024-03-08T01:01:15;1.00;96.30
43647;DHT22;56152;49.996;18.980;2024-03-08T01:06:18;0.90;96.40
43647;DHT22;56152;49.996;18.980;2024-03-08T01:11:20;0.80;96.50
43647;DHT22;56152;49.996;18.980;2024-03-08T01:16:23;0.80;96.50
43647;DHT22;56152;49.996;18.980;2024-03-08T01:21:26;0.70;96.50
43647;DHT22;56152;49.996;18.980;2024-03-08T01:26:27;0.70;96.60
43647;DHT22;56152;49.996;18.980;2024-03-08T01:31:29;0.60;96.60
43647;DHT22;56152;49.996;18.980;2024-03-08T01:36:33;0.70;96.60
43647;DHT22;56152;49.996;18.980;2024-03-08T01:41:35;0.60;96.60
43647;DHT22;56152;49.996;18.980;2024-03-08T01:46:36;0.50;96.60
43647;DHT22;56152;49.996;18.980;2024-03-08T01:51:41;0.40;96.70
43647;DHT22;56152;49.996;18.980;2024-03-08T01:56:43;0.40;96.80
43647;DHT22;56152;49.996;18.980;2024-03-08T02:01:46;0.40;96.80
43647;DHT22;56152;49.996;18.980;2024-03-08T02:06:49;0.30;96.80
43647;DHT22;56152;49.996;18.980;2024-03-08T02:11:52;0.30;96.80
43647;DHT22;56152;49.996;18.980;2024-03-08T02:16:55;0.20;96.80
43647;DHT22;56152;49.996;18.980;2024-03-08T02:21:59;0.20;96.80
43647;DHT22;56152;49.996;18.980;2024-03-08T02:27:06;0.20;96.90
43647;DHT22;56152;49.996;18.980;2024-03-08T02:32:12;0.20;96.80
43647;DHT22;56152;49.996;18.980;2024-03-08T02:37:20;0.20;96.80
43647;DHT22;56152;49.996;18.980;2024-03-08T02:42:24;0.30;96.80
43647;DHT22;56152;49.996;18.980;2024-03-08T02:47:28;0.30;96.80
43647;DHT22;56152;49.996;18.980;2024-03-08T02:52:33;0.40;96.80
43647;DHT22;56152;49.996;18.980;2024-03-08T02:57:35;0.40;96.80
43647;DHT22;56152;49.996;18.980;2024-03-08T03:02:37;0.40;96.80
43647;DHT22;56152;49.996;18.980;2024-03-08T03:07:40;0.40;96.80
43647;DHT22;56152;49.996;18.980;2024-03-08T03:12:42;0.40;96.80
43647;DHT22;56152;49.996;18.980;2024-03-08T03:17:46;0.40;96.80
43647;DHT22;56152;49.996;18.980;2024-03-08T03:22:49;0.40;96.90
43647;DHT22;56152;49.996;18.980;2024-03-08T03:27:53;0.40;97.10
43647;DHT22;56152;49.996;18.980;2024-03-08T03:32:59;0.40;96.90
43647;DHT22;56152;49.996;18.980;2024-03-08T03:38:03;0.30;96.90
43647;DHT22;56152;49.996;18.980;2024-03-08T03:43:07;0.30;96.90
43647;DHT22;56152;49.996;18.980;2024-03-08T03:48:10;0.30;96.90
43647;DHT22;56152;49.996;18.980;2024-03-08T03:53:16;0.30;97.00
43647;DHT22;56152;49.996;18.980;2024-03-08T03:58:18;0.20;97.00
43647;DHT22;56152;49.996;18.980;2024-03-08T04:03:22;0.20;97.00
43647;DHT22;56152;49.996;18.980;2024-03-08T04:08:26;0.20;97.10
43647;DHT22;56152;49.996;18.980;2024-03-08T04:13:28;0.20;97.10
43647;DHT22;56152;49.996;18.980;2024-03-08T04:18:33;0.20;97.10
43647;DHT22;56152;49.996;18.980;2024-03-08T04:23:38;0.10;97.10
43647;DHT22;56152;49.996;18.980;2024-03-08T04:28:40;0.20;97.20
43647;DHT22;56152;49.996;18.980;2024-03-08T04:33:42;0.10;97.20
43647;DHT22;56152;49.996;18.980;2024-03-08T04:38:47;0.10;97.20
43647;DHT22;56152;49.996;18.980;2024-03-08T04:43:49;0.10;97.20
43647;DHT22;56152;49.996;18.980;2024-03-08T04:48:54;0.10;97.20
43647;DHT22;56152;49.996;18.980;2024-03-08T04:53:57;0.20;97.20
43647;DHT22;56152;49.996;18.980;2024-03-08T04:59:00;0.20;97.20
43647;DHT22;56152;49.996;18.980;2024-03-08T05:04:02;0.20;97.20
43647;DHT22;56152;49.996;18.980;2024-03-08T05:09:05;0.20;97.20
43647;DHT22;56152;49.996;18.980;2024-03-08T05:14:14;0.20;97.20
43647;DHT22;56152;49.996;18.980;2024-03-08T05:19:21;0.20;97.20
43647;DHT22;56152;49.996;18.980;2024-03-08T05:24:24;0.20;97.10
43647;DHT22;56152;49.996;18.980;2024-03-08T05:29:26;0.30;97.10
43647;DHT22;56152;49.996;18.980;2024-03-08T05:34:29;0.30;97.00
43647;DHT22;56152;49.996;18.980;2024-03-08T05:39:33;0.40;97.00
43647;DHT22;56152;49.996;18.980;2024-03-08T05:44:35;0.40;97.00
43647;DHT22;56152;49.996;18.980;2024-03-08T05:49:36;0.50;96.90
43647;DHT22;56152;49.996;18.980;2024-03-08T05:54:41;0.50;96.90
43647;DHT22;56152;49.996;18.980;2024-03-08T05:59:44;0.60;96.90
43647;DHT22;56152;49.996;18.980;2024-03-08T06:04:46;0.60;96.80
43647;DHT22;56152;49.996;18.980;2024-03-08T06:09:50;0.60;96.70
43647;DHT22;56152;49.996;18.980;2024-03-08T06:14:51;0.70;96.70
43647;DHT22;56152;49.996;18.980;2024-03-08T06:19:54;0.70;96.70
43647;DHT22;56152;49.996;18.980;2024-03-08T06:25:00;0.80;96.70
43647;DHT22;56152;49.996;18.980;2024-03-08T06:30:03;0.80;96.60
43647;DHT22;56152;49.996;18.980;2024-03-08T06:35:06;0.90;96.60
43647;DHT22;56152;49.996;18.980;2024-03-08T06:40:11;0.90;96.60
43647;DHT22;56152;49.996;18.980;2024-03-08T06:45:14;1.00;96.80
43647;DHT22;56152;49.996;18.980;2024-03-08T06:50:20;1.10;96.50
43647;DHT22;56152;49.996;18.980;2024-03-08T06:55:23;1.20;96.50
43647;DHT22;56152;49.996;18.980;2024-03-08T07:00:25;1.30;96.40
43647;DHT22;56152;49.996;18.980;2024-03-08T07:05:29;1.40;96.30
43647;DHT22;56152;49.996;18.980;2024-03-08T07:10:35;1.40;96.30
43647;DHT22;56152;49.996;18.980;2024-03-08T07:15:37;1.60;96.20
43647;DHT22;56152;49.996;18.980;2024-03-08T07:20:42;1.70;96.20
43647;DHT22;56152;49.996;18.980;2024-03-08T07:25:48;1.90;96.10
43647;DHT22;56152;49.996;18.980;2024-03-08T07:30:50;2.00;95.80
43647;DHT22;56152;49.996;18.980;2024-03-08T07:36:09;2.10;95.80
43647;DHT22;56152;49.996;18.980;2024-03-08T07:41:15;2.10;95.80
43647;DHT22;56152;49.996;18.980;2024-03-08T07:46:17;2.20;95.60
43647;DHT22;56152;49.996;18.980;2024-03-08T07:51:19;2.30;95.60
43647;DHT22;56152;49.996;18.980;2024-03-08T07:56:22;2.30;95.60
43647;DHT22;56152;49.996;18.980;2024-03-08T08:01:25;2.30;95.60
43647;DHT22;56152;49.996;18.980;2024-03-08T08:06:27;2.20;95.30
43647;DHT22;56152;49.996;18.980;2024-03-08T08:11:35;2.10;95.50
43647;DHT22;56152;49.996;18.980;2024-03-08T08:16:37;2.10;95.60
43647;DHT22;56152;49.996;18.980;2024-03-08T08:21:44;2.20;95.60
43647;DHT22;56152;49.996;18.980;2024-03-08T08:26:47;2.20;95.50
43647;DHT22;56152;49.996;18.980;2024-03-08T08:31:53;2.30;95.50
43647;DHT22;56152;49.996;18.980;2024-03-08T08:36:55;2.20;95.40
43647;DHT22;56152;49.996;18.980;2024-03-08T08:42:01;2.20;95.40
43647;DHT22;56152;49.996;18.980;2024-03-08T08:47:03;2.20;95.30
43647;DHT22;56152;49.996;18.980;2024-03-08T08:52:05;2.20;95.40
43647;DHT22;56152;49.996;18.980;2024-03-08T08:57:09;2.30;95.40
43647;DHT22;56152;49.996;18.980;2024-03-08T09:02:11;2.30;95.30
43647;DHT22;56152;49.996;18.980;2024-03-08T09:07:13;2.40;95.30
43647;DHT22;56152;49.996;18.980;2024-03-08T09:12:17;2.40;95.30
43647;DHT22;56152;49.996;18.980;2024-03-08T09:17:19;2.40;95.20
43647;DHT22;56152;49.996;18.980;2024-03-08T09:22:21;2.50;95.30
43647;DHT22;56152;49.996;18.980;2024-03-08T09:27:24;2.50;95.20
43647;DHT22;56152;49.996;18.980;2024-03-08T09:32:27;2.50;95.10
43647;DHT22;56152;49.996;18.980;2024-03-08T09:37:30;2.60;95.00
43647;DHT22;56152;49.996;18.980;2024-03-08T09:42:33;2.60;95.00
43647;DHT22;56152;49.996;18.980;2024-03-08T09:47:39;2.60;95.00
43647;DHT22;56152;49.996;18.980;2024-03-08T09:52:42;2.70;95.10
43647;DHT22;56152;49.996;18.980;2024-03-08T09:57:49;2.90;95.00
43647;DHT22;56152;49.996;18.980;2024-03-08T10:03:06;2.90;94.80
43647;DHT22;56152;49.996;18.980;2024-03-08T10:08:09;2.90;94.70
43647;DHT22;56152;49.996;18.980;2024-03-08T10:13:14;3.00;94.80
43647;DHT22;56152;49.996;18.980;2024-03-08T10:18:17;3.10;94.70
43647;DHT22;56152;49.996;18.980;2024-03-08T10:23:20;3.10;94.60
43647;DHT22;56152;49.996;18.980;2024-03-08T10:28:25;3.10;94.60
43647;DHT22;56152;49.996;18.980;2024-03-08T10:33:31;3.30;94.60
43647;DHT22;56152;49.996;18.980;2024-03-08T10:38:36;3.40;94.40
43647;DHT22;56152;49.996;18.980;2024-03-08T10:44:05;3.30;94.30
43647;DHT22;56152;49.996;18.980;2024-03-08T10:49:17;3.20;94.40
43647;DHT22;56152;49.996;18.980;2024-03-08T10:54:23;3.40;94.40
43647;DHT22;56152;49.996;18.980;2024-03-08T10:59:28;3.30;94.50
43647;DHT22;56152;49.996;18.980;2024-03-08T11:04:37;3.30;94.20
43647;DHT22;56152;49.996;18.980;2024-03-08T11:09:40;3.40;94.20
43647;DHT22;56152;49.996;18.980;2024-03-08T11:14:48;3.50;94.20
43647;DHT22;56152;49.996;18.980;2024-03-08T11:19:51;3.70;94.10
43647;DHT22;56152;49.996;18.980;2024-03-08T11:25:01;3.80;94.00
43647;DHT22;56152;49.996;18.980;2024-03-08T11:30:11;4.00;94.00
43647;DHT22;56152;49.996;18.980;2024-03-08T11:35:19;4.20;93.90
43647;DHT22;56152;49.996;18.980;2024-03-08T11:40:24;4.40;93.80
43647;DHT22;56152;49.996;18.980;2024-03-08T11:45:29;4.40;93.60
43647;DHT22;56152;49.996;18.980;2024-03-08T11:50:31;4.40;93.50
43647;DHT22;56152;49.996;18.980;2024-03-08T11:55:34;4.40;93.60
43647;DHT22;56152;49.996;18.980;2024-03-08T12:00:38;4.90;93.70
43647;DHT22;56152;49.996;18.980;2024-03-08T12:05:47;5.50;93.20
43647;DHT22;56152;49.996;18.980;2024-03-08T12:11:03;5.80;92.80
43647;DHT22;56152;49.996;18.980;2024-03-08T12:16:10;6.00;92.50
43647;DHT22;56152;49.996;18.980;2024-03-08T12:21:13;6.10;92.50
43647;DHT22;56152;49.996;18.980;2024-03-08T12:26:23;6.20;92.30
43647;DHT22;56152;49.996;18.980;2024-03-08T12:31:28;6.20;92.10
43647;DHT22;56152;49.996;18.980;2024-03-08T12:36:30;6.40;92.30
43647;DHT22;56152;49.996;18.980;2024-03-08T12:41:38;6.60;92.00
43647;DHT22;56152;49.996;18.980;2024-03-08T12:46:44;6.70;91.70
43647;DHT22;56152;49.996;18.980;2024-03-08T12:51:49;6.80;91.80
43647;DHT22;56152;49.996;18.980;2024-03-08T12:56:54;7.10;91.50
43647;DHT22;56152;49.996;18.980;2024-03-08T13:01:58;7.40;91.30
43647;DHT22;56152;49.996;18.980;2024-03-08T13:07:00;7.30;90.90
43647;DHT22;56152;49.996;18.980;2024-03-08T13:12:03;7.20;91.10
43647;DHT22;56152;49.996;18.980;2024-03-08T13:17:08;7.30;91.20
43647;DHT22;56152;49.996;18.980;2024-03-08T13:22:11;7.10;91.10
43647;DHT22;56152;49.996;18.980;2024-03-08T13:27:16;7.00;91.30
43647;DHT22;56152;49.996;18.980;2024-03-08T13:32:22;6.90;91.40
43647;DHT22;56152;49.996;18.980;2024-03-08T13:37:24;7.00;91.50
43647;DHT22;56152;49.996;18.980;2024-03-08T13:42:27;7.00;91.10
43647;DHT22;56152;49.996;18.980;2024-03-08T13:47:33;7.10;91.00
43647;DHT22;56152;49.996;18.980;2024-03-08T13:52:36;7.10;90.60
43647;DHT22;56152;49.996;18.980;2024-03-08T13:57:40;6.60;90.70
43647;DHT22;56152;49.996;18.980;2024-03-08T14:02:46;6.70;91.20
43647;DHT22;56152;49.996;18.980;2024-03-08T14:07:49;6.70;91.10
43647;DHT22;56152;49.996;18.980;2024-03-08T14:12:51;6.90;91.40
43647;DHT22;56152;49.996;18.980;2024-03-08T14:17:56;7.00;91.10
43647;DHT22;56152;49.996;18.980;2024-03-08T14:22:58;7.00;90.80
43647;DHT22;56152;49.996;18.980;2024-03-08T14:28:00;7.20;90.80
43647;DHT22;56152;49.996;18.980;2024-03-08T14:33:09;7.30;90.40
43647;DHT22;56152;49.996;18.980;2024-03-08T14:38:11;7.10;90.10
43647;DHT22;56152;49.996;18.980;2024-03-08T14:43:13;6.90;90.40
43647;DHT22;56152;49.996;18.980;2024-03-08T14:48:19;6.80;90.20
43647;DHT22;56152;49.996;18.980;2024-03-08T14:53:23;6.60;90.10
43647;DHT22;56152;49.996;18.980;2024-03-08T14:58:27;6.30;90.10
43647;DHT22;56152;49.996;18.980;2024-03-08T15:03:36;6.00;90.10
43647;DHT22;56152;49.996;18.980;2024-03-08T15:08:40;5.80;90.60
43647;DHT22;56152;49.996;18.980;2024-03-08T15:13:43;5.80;90.70
43647;DHT22;56152;49.996;18.980;2024-03-08T15:18:49;5.90;90.60
43647;DHT22;56152;49.996;18.980;2024-03-08T15:24:10;5.90;90.50
43647;DHT22;56152;49.996;18.980;2024-03-08T15:29:23;5.90;90.30
43647;DHT22;56152;49.996;18.980;2024-03-08T15:34:29;5.80;90.00
43647;DHT22;56152;49.996;18.980;2024-03-08T15:39:39;5.30;89.70
43647;DHT22;56152;49.996;18.980;2024-03-08T15:44:43;4.90;90.20
43647;DHT22;56152;49.996;18.980;2024-03-08T15:50:12;4.70;90.40
43647;DHT22;56152;49.996;18.980;2024-03-08T15:55:15;4.50;90.50
43647;DHT22;56152;49.996;18.980;2024-03-08T16:00:22;4.30;90.60
43647;DHT22;56152;49.996;18.980;2024-03-08T16:05:36;4.20;90.70
43647;DHT22;56152;49.996;18.980;2024-03-08T16:10:40;4.10;90.90
43647;DHT22;56152;49.996;18.980;2024-03-08T16:15:43;4.00;90.90
43647;DHT22;56152;49.996;18.980;2024-03-08T16:20:52;3.80;91.00
43647;DHT22;56152;49.996;18.980;2024-03-08T16:25:58;3.70;91.10
43647;DHT22;56152;49.996;18.980;2024-03-08T16:31:00;3.60;91.20
43647;DHT22;56152;49.996;18.980;2024-03-08T16:36:07;3.50;91.30
43647;DHT22;56152;49.996;18.980;2024-03-08T16:41:12;3.30;91.40
43647;DHT22;56152;49.996;18.980;2024-03-08T16:46:19;3.20;91.50
43647;DHT22;56152;49.996;18.980;2024-03-08T16:51:24;3.10;91.60
43647;DHT22;56152;49.996;18.980;2024-03-08T16:56:27;3.00;91.70
43647;DHT22;56152;49.996;18.980;2024-03-08T17:01:39;2.80;91.80
43647;DHT22;56152;49.996;18.980;2024-03-08T17:06:45;2.70;91.90
43647;DHT22;56152;49.996;18.980;2024-03-08T17:11:47;2.60;92.00
43647;DHT22;56152;49.996;18.980;2024-03-08T17:16:51;2.50;92.10
43647;DHT22;56152;49.996;18.980;2024-03-08T17:21:55;2.40;92.20
43647;DHT22;56152;49.996;18.980;2024-03-08T17:26:57;2.30;92.30
43647;DHT22;56152;49.996;18.980;2024-03-08T17:32:01;2.20;92.30
43647;DHT22;56152;49.996;18.980;2024-03-08T17:37:06;2.10;92.40
43647;DHT22;56152;49.996;18.980;2024-03-08T17:42:10;2.00;92.50
43647;DHT22;56152;49.996;18.980;2024-03-08T17:47:18;1.90;92.60
43647;DHT22;56152;49.996;18.980;2024-03-08T17:52:26;1.80;92.70
43647;DHT22;56152;49.996;18.980;2024-03-08T17:57:28;1.70;92.80
43647;DHT22;56152;49.996;18.980;2024-03-08T18:02:30;1.60;92.80
43647;DHT22;56152;49.996;18.980;2024-03-08T18:07:41;1.50;93.00
43647;DHT22;56152;49.996;18.980;2024-03-08T18:12:43;1.50;93.10
43647;DHT22;56152;49.996;18.980;2024-03-08T18:17:46;1.40;93.20
43647;DHT22;56152;49.996;18.980;2024-03-08T18:22:53;1.40;93.30
43647;DHT22;56152;49.996;18.980;2024-03-08T18:27:58;1.40;93.40
43647;DHT22;56152;49.996;18.980;2024-03-08T18:33:02;1.50;93.30
43647;DHT22;56152;49.996;18.980;2024-03-08T18:38:07;1.60;93.40
43647;DHT22;56152;49.996;18.980;2024-03-08T18:43:19;1.60;93.30
43647;DHT22;56152;49.996;18.980;2024-03-08T18:48:26;1.70;93.30
43647;DHT22;56152;49.996;18.980;2024-03-08T18:53:30;1.80;93.30
43647;DHT22;56152;49.996;18.980;2024-03-08T18:58:35;1.80;93.30
43647;DHT22;56152;49.996;18.980;2024-03-08T19:03:37;1.80;93.30
43647;DHT22;56152;49.996;18.980;2024-03-08T19:08:46;1.80;93.40
43647;DHT22;56152;49.996;18.980;2024-03-08T19:13:55;1.80;93.40
43647;DHT22;56152;49.996;18.980;2024-03-08T19:18:59;1.80;93.50
43647;DHT22;56152;49.996;18.980;2024-03-08T19:24:03;1.80;93.50
43647;DHT22;56152;49.996;18.980;2024-03-08T19:29:07;1.80;93.50
43647;DHT22;56152;49.996;18.980;2024-03-08T19:34:12;1.80;93.50
43647;DHT22;56152;49.996;18.980;2024-03-08T19:39:16;1.70;93.50
43647;DHT22;56152;49.996;18.980;2024-03-08T19:44:20;1.60;93.60
43647;DHT22;56152;49.996;18.980;2024-03-08T19:49:24;1.50;93.60
43647;DHT22;56152;49.996;18.980;2024-03-08T19:54:29;1.40;93.70
43647;DHT22;56152;49.996;18.980;2024-03-08T19:59:33;1.30;93.80
43647;DHT22;56152;49.996;18.980;2024-03-08T20:04:41;1.20;93.90
43647;DHT22;56152;49.996;18.980;2024-03-08T20:09:45;1.10;94.00
43647;DHT22;56152;49.996;18.980;2024-03-08T20:14:48;0.90;94.10
43647;DHT22;56152;49.996;18.980;2024-03-08T20:19:50;0.80;94.20
43647;DHT22;56152;49.996;18.980;2024-03-08T20:24:55;0.80;94.30
43647;DHT22;56152;49.996;18.980;2024-03-08T20:29:58;0.70;94.30
43647;DHT22;56152;49.996;18.980;2024-03-08T20:35:04;0.60;94.30
43647;DHT22;56152;49.996;18.980;2024-03-08T20:40:17;0.60;94.40
43647;DHT22;56152;49.996;18.980;2024-03-08T20:45:25;0.50;94.60
43647;DHT22;56152;49.996;18.980;2024-03-08T20:50:31;0.50;94.50
43647;DHT22;56152;49.996;18.980;2024-03-08T20:55:38;0.40;94.50
43647;DHT22;56152;49.996;18.980;2024-03-08T21:00:47;0.40;94.60
43647;DHT22;56152;49.996;18.980;2024-03-08T21:05:54;0.40;94.60
43647;DHT22;56152;49.996;18.980;2024-03-08T21:10:58;0.30;94.60
43647;DHT22;56152;49.996;18.980;2024-03-08T21:16:00;0.30;94.70
43647;DHT22;56152;49.996;18.980;2024-03-08T21:21:05;0.20;94.70
43647;DHT22;56152;49.996;18.980;2024-03-08T21:26:17;0.20;94.80
43647;DHT22;56152;49.996;18.980;2024-03-08T21:31:19;0.10;94.90
43647;DHT22;56152;49.996;18.980;2024-03-08T21:36:25;0.00;95.00
43647;DHT22;56152;49.996;18.980;2024-03-08T21:41:32;-0.10;95.00
43647;DHT22;56152;49.996;18.980;2024-03-08T21:46:37;-0.20;95.10
43647;DHT22;56152;49.996;18.980;2024-03-08T21:51:40;-0.20;95.10
43647;DHT22;56152;49.996;18.980;2024-03-08T21:56:49;-0.20;95.20
43647;DHT22;56152;49.996;18.980;2024-03-08T22:01:51;-0.20;95.20
43647;DHT22;56152;49.996;18.980;2024-03-08T22:06:56;-0.30;95.20
43647;DHT22;56152;49.996;18.980;2024-03-08T22:12:01;-0.30;95.30
43647;DHT22;56152;49.996;18.980;2024-03-08T22:17:09;-0.30;95.30
43647;DHT22;56152;49.996;18.980;2024-03-08T22:22:15;-0.30;95.30
43647;DHT22;56152;49.996;18.980;2024-03-08T22:27:20;-0.40;95.30
43647;DHT22;56152;49.996;18.980;2024-03-08T22:32:23;-0.50;95.40
43647;DHT22;56152;49.996;18.980;2024-03-08T22:37:26;-0.50;95.40
43647;DHT22;56152;49.996;18.980;2024-03-08T22:42:30;-0.50;95.50
43647;DHT22;56152;49.996;18.980;2024-03-08T22:47:31;-0.50;95.50
43647;DHT22;56152;49.996;18.980;2024-03-08T22:52:36;-0.50;95.60
43647;DHT22;56152;49.996;18.980;2024-03-08T22:57:46;-0.50;95.60
43647;DHT22;56152;49.996;18.980;2024-03-08T23:02:48;-0.50;95.70
43647;DHT22;56152;49.996;18.980;2024-03-08T23:07:51;-0.50;95.70
43647;DHT22;56152;49.996;18.980;2024-03-08T23:12:55;-0.50;95.70
43647;DHT22;56152;49.996;18.980;2024-03-08T23:18:00;-0.50;95.70
43647;DHT22;56152;49.996;18.980;2024-03-08T23:23:10;-0.40;95.70
43647;DHT22;56152;49.996;18.980;2024-03-08T23:28:14;-0.30;95.70
43647;DHT22;56152;49.996;18.980;2024-03-08T23:33:16;-0.30;95.70
43647;DHT22;56152;49.996;18.980;2024-03-08T23:38:19;-0.30;95.60
43647;DHT22;56152;49.996;18.980;2024-03-08T23:43:25;-0.30;95.70
43647;DHT22;56152;49.996;18.980;2024-03-08T23:48:30;-0.30;95.80
43647;DHT22;56152;49.996;18.980;2024-03-08T23:53:31;-0.40;95.80
43647;DHT22;56152;49.996;18.980;2024-03-08T23:58:38;-0.50;95.80
